This is the latest recevied weather packets stored in our database for station/object WA9AFM-10. If no packets are shown the sender has not sent any weather packets the latest 10 day(s).
| Time | Temp. | Humidity | Pressure | Rain* | Wind** | Luminosity | Snow |
|---|---|---|---|---|---|---|---|
| 1777888273 | 16.11° C | 62% | 1004.1 hPa | 0 mm | - | - | - |
| 1777886473 | 16.11° C | 61% | 1004.1 hPa | 0 mm | - | - | - |
| 1777884674 | 16.11° C | 61% | 1004.4 hPa | 0 mm | - | - | - |
| 1777882872 | 16.67° C | 59% | 1004.7 hPa | 0 mm | - | - | - |
| 1777881073 | 16.67° C | 57% | 1004.9 hPa | 0 mm | - | - | - |
| 1777875675 | 18.89° C | 50% | 1006.1 hPa | 0 mm | - | - | - |
| 1777873873 | 18.89° C | 49% | 1006.4 hPa | 0 mm | - | - | - |
| 1777872075 | 19.44° C | 49% | 1006.6 hPa | 0 mm | - | - | - |
| 1777868473 | 20° C | 46% | 1006.8 hPa | 0 mm | - | - | - |
| 1777866674 | 20.56° C | 45% | 1007.1 hPa | 0 mm | - | - | - |
| 1777864874 | 21.11° C | 44% | 1007.1 hPa | 0 mm | - | - | - |
| 1777863072 | 21.67° C | 43% | 1007 hPa | 0 mm | - | - | - |
| 1777861273 | 22.22° C | 41% | 1006.9 hPa | 0 mm | - | - | - |
| 1777859473 | 22.78° C | 38% | 1006.7 hPa | 0 mm | - | - | - |
| 1777857674 | 23.89° C | 35% | 1006.6 hPa | 0 mm | - | - | - |
| 1777854073 | 26.11° C | 31% | 1006.8 hPa | 0 mm | - | - | - |
| 1777852273 | 26.67° C | 30% | 1007.1 hPa | 0 mm | - | - | - |
| 1777850475 | 27.78° C | 29% | 1007.2 hPa | 0 mm | - | - | - |
| 1777848673 | 28.89° C | 27% | 1007.3 hPa | 0 mm | - | - | - |
| 1777846874 | 28.89° C | 28% | 1007.5 hPa | 0 mm | - | - | - |
| 1777845072 | 29.44° C | 28% | 1007.8 hPa | 0 mm | - | - | - |
| 1777843273 | 30° C | 26% | 1008.2 hPa | 0 mm | - | - | - |
| 1777841474 | 29.44° C | 29% | 1008.7 hPa | 0 mm | - | - | - |
| 1777839673 | 30° C | 28% | 1009.2 hPa | 0 mm | - | - | - |
| 1777836074 | 29.44° C | 28% | 1010.2 hPa | 0 mm | - | - | - |
* Rain latest hour (hover to see other rain measurements)
** Current wind speed in m/s (hover to see current wind gust speed)